Time;durP1;ratioP1;P1;durP2;ratioP2;P2;SDS_P1;SDS_P2;PMS_P1;PMS_P2;Temp;Humidity;BMP_temperature;BMP_pressure;BME280_temperature;BME280_humidity;BME280_pressure;Samples;Min_cycle;Max_cycle;Signal;HPM_P1;HPM_P2
2024/02/16 00:01:33;;;;;;;56.70;33.20;;;;;;;;;;136427;1290;22145;-82
2024/02/16 00:04:34;;;;;;;66.50;36.20;;;;;;;;;;136423;1290;22045;-82
2024/02/16 00:07:35;;;;;;;61.60;36.40;;;;;;;;;;136441;1290;22314;-83
2024/02/16 00:10:37;;;;;;;65.10;34.80;;;;;;;;;;136429;1290;22050;-84
2024/02/16 00:13:38;;;;;;;64.40;35.60;;;;;;;;;;136444;1290;22070;-83
2024/02/16 00:16:39;;;;;;;59.50;34.40;;;;;;;;;;136435;1290;22098;-82
2024/02/16 00:19:40;;;;;;;57.30;34.30;;;;;;;;;;136427;1290;22076;-82
2024/02/16 00:22:41;;;;;;;61.80;35.10;;;;;;;;;;136431;1290;22078;-82
2024/02/16 00:25:43;;;;;;;68.00;34.70;;;;;;;;;;136432;1290;22065;-82
2024/02/16 00:28:47;;;;;;;60.70;33.10;;;;;;;;;;136449;1290;22565;-82
2024/02/16 00:31:48;;;;;;;63.70;34.80;;;;;;;;;;136415;1290;22144;-82
2024/02/16 00:34:51;;;;;;;61.50;34.30;;;;;;;;;;136451;1290;22538;-82
2024/02/16 00:37:53;;;;;;;61.20;35.30;;;;;;;;;;136394;1290;22049;-82
2024/02/16 00:40:54;;;;;;;64.10;34.90;;;;;;;;;;136446;1276;22712;-82
2024/02/16 00:43:56;;;;;;;61.70;35.10;;;;;;;;;;136450;1290;22058;-82
2024/02/16 00:46:58;;;;;;;65.30;36.00;;;;;;;;;;136531;1290;22195;-81
2024/02/16 00:49:59;;;;;;;62.00;36.00;;;;;;;;;;136347;1290;212413;-82
2024/02/16 00:53:00;;;;;;;61.50;35.10;;;;;;;;;;136493;1290;22074;-82
2024/02/16 00:56:02;;;;;;;71.20;36.60;;;;;;;;;;136463;1290;22087;-84
2024/02/16 00:59:03;;;;;;;98.60;36.10;;;;;;;;;;136479;1290;22039;-82
2024/02/16 01:02:05;;;;;;;60.60;35.10;;;;;;;;;;136440;1290;22063;-82
2024/02/16 01:05:06;;;;;;;65.90;36.70;;;;;;;;;;136443;1290;22237;-82
2024/02/16 01:08:07;;;;;;;60.10;35.10;;;;;;;;;;136438;1290;22138;-82
2024/02/16 01:11:08;;;;;;;70.10;35.80;;;;;;;;;;136457;1290;22675;-82
2024/02/16 01:14:09;;;;;;;67.30;37.70;;;;;;;;;;136435;1290;22507;-82
2024/02/16 01:17:11;;;;;;;63.70;35.90;;;;;;;;;;136439;1290;22257;-82
2024/02/16 01:20:12;;;;;;;61.00;35.90;;;;;;;;;;136443;1290;22212;-82
2024/02/16 01:23:13;;;;;;;65.40;36.20;;;;;;;;;;136447;1290;22123;-83
2024/02/16 01:26:15;;;;;;;63.40;35.30;;;;;;;;;;136444;1290;22135;-82
2024/02/16 01:29:16;;;;;;;60.80;35.50;;;;;;;;;;136444;1278;22126;-83
2024/02/16 01:32:17;;;;;;;64.40;37.00;;;;;;;;;;136454;1290;22103;-83
2024/02/16 01:35:20;;;;;;;68.80;36.80;;;;;;;;;;136407;1290;22125;-82
2024/02/16 01:38:22;;;;;;;1322.20;119.70;;;;;;;;;;136412;1290;22105;-84
2024/02/16 01:41:24;;;;;;;179.20;44.40;;;;;;;;;;136432;1290;22631;-82
2024/02/16 01:44:28;;;;;;;67.90;35.10;;;;;;;;;;136434;1286;22105;-82
2024/02/16 01:47:29;;;;;;;61.40;36.90;;;;;;;;;;136454;1290;22095;-82
2024/02/16 01:50:30;;;;;;;65.00;36.50;;;;;;;;;;136448;1290;22082;-82
2024/02/16 01:53:31;;;;;;;66.30;37.60;;;;;;;;;;136397;1290;22219;-82
2024/02/16 01:56:32;;;;;;;60.10;36.90;;;;;;;;;;136450;1290;22072;-82
2024/02/16 01:59:36;;;;;;;64.00;37.20;;;;;;;;;;136462;1290;22081;-82
2024/02/16 02:02:37;;;;;;;64.60;36.30;;;;;;;;;;136469;1290;22030;-83
2024/02/16 02:05:40;;;;;;;68.30;36.70;;;;;;;;;;136482;1290;22062;-83
2024/02/16 02:08:41;;;;;;;67.90;37.40;;;;;;;;;;136507;1290;22251;-83
2024/02/16 02:11:43;;;;;;;61.50;35.60;;;;;;;;;;136565;1290;22034;-82
2024/02/16 02:14:44;;;;;;;64.10;38.40;;;;;;;;;;136579;1290;21987;-82
2024/02/16 02:17:45;;;;;;;63.50;35.80;;;;;;;;;;136534;1290;22232;-82
2024/02/16 02:20:46;;;;;;;75.60;39.10;;;;;;;;;;136501;1290;22088;-82
2024/02/16 02:23:47;;;;;;;67.20;38.00;;;;;;;;;;136466;1290;22060;-82
2024/02/16 02:26:49;;;;;;;120.90;41.20;;;;;;;;;;136443;1290;22151;-83
2024/02/16 02:29:50;;;;;;;57.00;35.90;;;;;;;;;;136473;1290;22020;-83
2024/02/16 02:32:51;;;;;;;62.50;36.50;;;;;;;;;;136474;1290;22109;-83
2024/02/16 02:35:52;;;;;;;72.40;37.70;;;;;;;;;;136464;1290;22092;-83
2024/02/16 02:38:53;;;;;;;69.20;39.90;;;;;;;;;;136427;1290;22047;-82
2024/02/16 02:41:54;;;;;;;71.40;38.40;;;;;;;;;;136441;1290;22105;-83
2024/02/16 02:44:56;;;;;;;66.80;38.80;;;;;;;;;;136450;1290;22138;-83
2024/02/16 02:47:59;;;;;;;68.60;39.50;;;;;;;;;;136445;1290;22131;-83
2024/02/16 02:51:00;;;;;;;70.10;38.90;;;;;;;;;;136440;1290;22214;-83
2024/02/16 02:54:04;;;;;;;68.10;39.60;;;;;;;;;;136444;1290;22154;-82
2024/02/16 02:57:05;;;;;;;71.80;39.80;;;;;;;;;;136440;1290;22119;-82
2024/02/16 03:00:10;;;;;;;66.00;37.80;;;;;;;;;;136446;1290;22077;-82
2024/02/16 03:03:11;;;;;;;;;;;;;;;;;;136453;1290;22387;-82
2024/02/16 03:06:12;;;;;;;76.50;37.40;;;;;;;;;;136430;1290;22155;-82
2024/02/16 03:09:14;;;;;;;66.30;39.40;;;;;;;;;;136414;1290;22511;-82
2024/02/16 03:12:15;;;;;;;72.30;39.20;;;;;;;;;;136441;1290;22060;-82
2024/02/16 03:15:16;;;;;;;81.40;40.50;;;;;;;;;;136447;1290;22161;-81
2024/02/16 03:18:18;;;;;;;140.50;43.00;;;;;;;;;;136439;1290;22535;-81
2024/02/16 03:21:19;;;;;;;77.50;40.50;;;;;;;;;;136429;1290;22532;-81
2024/02/16 03:24:20;;;;;;;73.10;40.30;;;;;;;;;;136418;1290;22173;-81
2024/02/16 03:27:21;;;;;;;72.80;41.50;;;;;;;;;;136416;1290;22064;-81
2024/02/16 03:30:27;;;;;;;111.80;41.20;;;;;;;;;;136468;1290;22518;-82
2024/02/16 03:33:28;;;;;;;65.90;39.10;;;;;;;;;;136426;1290;22648;-82
2024/02/16 03:36:30;;;;;;;68.30;39.40;;;;;;;;;;136402;1283;22615;-82
2024/02/16 03:39:31;;;;;;;70.60;40.90;;;;;;;;;;136413;1290;22236;-82
2024/02/16 03:42:32;;;;;;;167.90;41.80;;;;;;;;;;136400;1290;22232;-79
2024/02/16 03:45:33;;;;;;;102.10;42.60;;;;;;;;;;136389;1290;22339;-81
2024/02/16 03:48:35;;;;;;;73.00;39.30;;;;;;;;;;136420;1290;22221;-82
2024/02/16 03:51:36;;;;;;;74.50;41.00;;;;;;;;;;136392;1290;22513;-83
2024/02/16 03:54:37;;;;;;;70.80;41.00;;;;;;;;;;136411;1290;22142;-80
2024/02/16 03:57:38;;;;;;;73.30;40.80;;;;;;;;;;136366;1290;22284;-80
2024/02/16 04:00:39;;;;;;;69.60;41.20;;;;;;;;;;136339;1290;22166;-81
2024/02/16 04:03:41;;;;;;;78.30;42.20;;;;;;;;;;136386;1290;22242;-82
2024/02/16 04:06:42;;;;;;;73.00;42.70;;;;;;;;;;136276;1290;22171;-81
2024/02/16 04:09:43;;;;;;;68.70;39.70;;;;;;;;;;136354;1290;22173;-82
2024/02/16 04:12:44;;;;;;;72.10;42.60;;;;;;;;;;136435;1290;22596;-81
2024/02/16 04:15:45;;;;;;;78.40;41.70;;;;;;;;;;136402;1290;22744;-81
2024/02/16 04:18:46;;;;;;;69.40;40.70;;;;;;;;;;136398;1290;22716;-82
2024/02/16 04:21:50;;;;;;;73.60;41.20;;;;;;;;;;136383;1290;22097;-83
2024/02/16 04:24:55;;;;;;;70.40;41.80;;;;;;;;;;136394;1290;22100;-82
2024/02/16 04:27:56;;;;;;;76.10;42.90;;;;;;;;;;136419;1290;22217;-82
2024/02/16 04:30:57;;;;;;;75.00;42.50;;;;;;;;;;136419;1290;22079;-83
2024/02/16 04:33:59;;;;;;;75.40;41.60;;;;;;;;;;136449;1290;22152;-81
2024/02/16 04:37:00;;;;;;;71.10;43.00;;;;;;;;;;136392;1290;22225;-82
2024/02/16 04:40:05;;;;;;;68.50;41.10;;;;;;;;;;136432;1280;22126;-82
2024/02/16 04:43:06;;;;;;;1495.40;127.60;;;;;;;;;;136424;1283;22073;-81
2024/02/16 04:46:08;;;;;;;87.90;45.20;;;;;;;;;;136459;1290;22062;-81
2024/02/16 04:49:09;;;;;;;77.60;42.80;;;;;;;;;;136452;1290;22154;-82
2024/02/16 04:52:10;;;;;;;74.80;41.40;;;;;;;;;;136411;1290;22421;-81
2024/02/16 04:55:14;;;;;;;72.30;40.60;;;;;;;;;;136418;1290;22128;-82
2024/02/16 04:58:15;;;;;;;74.20;42.70;;;;;;;;;;136498;1290;22049;-82
2024/02/16 05:01:20;;;;;;;82.90;42.70;;;;;;;;;;136499;1290;22136;-79
2024/02/16 05:04:21;;;;;;;74.90;41.40;;;;;;;;;;136486;1290;22146;-82
2024/02/16 05:07:22;;;;;;;81.80;44.20;;;;;;;;;;136416;1290;23082;-81
2024/02/16 05:10:24;;;;;;;76.20;44.90;;;;;;;;;;136306;1290;22575;-80
2024/02/16 05:16:52;;;;;;;134.30;46.80;;;;;;;;;;136331;1290;22033;-80
2024/02/16 05:19:55;;;;;;;78.60;44.70;;;;;;;;;;136307;1290;22885;-81
2024/02/16 05:23:02;;;;;;;92.50;42.50;;;;;;;;;;136295;1290;22213;-80
2024/02/16 05:26:03;;;;;;;75.80;42.50;;;;;;;;;;136332;1286;22131;-80
2024/02/16 05:29:07;;;;;;;71.90;41.60;;;;;;;;;;136368;1290;22147;-80
2024/02/16 05:32:10;;;;;;;73.30;44.20;;;;;;;;;;136372;1290;22154;-80
2024/02/16 05:35:12;;;;;;;73.60;43.40;;;;;;;;;;136338;1290;22140;-80
2024/02/16 05:38:21;;;;;;;78.20;45.00;;;;;;;;;;136277;1290;22129;-81
2024/02/16 05:41:22;;;;;;;238.80;49.80;;;;;;;;;;136348;1290;22193;-78
2024/02/16 05:44:23;;;;;;;88.60;44.00;;;;;;;;;;136327;1290;22167;-81
2024/02/16 05:47:27;;;;;;;107.60;44.20;;;;;;;;;;136403;1290;22716;-80
2024/02/16 05:50:28;;;;;;;79.20;43.20;;;;;;;;;;136375;1290;22619;-81
2024/02/16 05:53:29;;;;;;;78.30;44.30;;;;;;;;;;136325;1290;22144;-81
2024/02/16 05:56:33;;;;;;;76.30;44.30;;;;;;;;;;136339;1290;22582;-81
2024/02/16 05:59:35;;;;;;;78.20;43.30;;;;;;;;;;136294;1290;22449;-80
2024/02/16 06:02:36;;;;;;;76.30;42.50;;;;;;;;;;136340;1282;22148;-80
2024/02/16 06:05:37;;;;;;;78.20;43.90;;;;;;;;;;136363;1286;22127;-82
2024/02/16 06:08:39;;;;;;;80.50;41.80;;;;;;;;;;136328;1290;22410;-82
2024/02/16 06:11:40;;;;;;;82.50;45.80;;;;;;;;;;136329;1290;22161;-81
2024/02/16 06:14:41;;;;;;;76.60;44.70;;;;;;;;;;136309;1290;22180;-82
2024/02/16 06:17:42;;;;;;;79.40;45.60;;;;;;;;;;136298;1290;22540;-81
2024/02/16 06:20:43;;;;;;;73.30;43.10;;;;;;;;;;136297;1290;22169;-82
2024/02/16 06:23:44;;;;;;;89.20;44.50;;;;;;;;;;136287;1290;22199;-81
2024/02/16 06:26:48;;;;;;;242.20;50.70;;;;;;;;;;136299;1290;22215;-81
2024/02/16 06:29:49;;;;;;;85.50;43.70;;;;;;;;;;136322;1290;22471;-82
2024/02/16 06:32:50;;;;;;;79.00;42.60;;;;;;;;;;136312;1290;22138;-81
2024/02/16 06:35:51;;;;;;;72.80;42.30;;;;;;;;;;136305;1290;22137;-81
2024/02/16 06:38:55;;;;;;;77.40;43.40;;;;;;;;;;136352;1290;22152;-81
2024/02/16 06:41:56;;;;;;;97.20;43.70;;;;;;;;;;136398;1290;22182;-81
2024/02/16 06:44:57;;;;;;;74.30;43.30;;;;;;;;;;136402;1290;22142;-82
2024/02/16 06:47:58;;;;;;;79.50;45.00;;;;;;;;;;136380;1290;22117;-79
2024/02/16 06:50:59;;;;;;;72.30;41.60;;;;;;;;;;136450;1290;22163;-80
2024/02/16 06:54:01;;;;;;;72.00;42.60;;;;;;;;;;136490;1290;22145;-81
2024/02/16 06:57:02;;;;;;;67.40;41.30;;;;;;;;;;136435;1290;22214;-79
2024/02/16 07:00:04;;;;;;;69.90;41.10;;;;;;;;;;136397;1290;22152;-80
2024/02/16 07:03:05;;;;;;;74.70;43.80;;;;;;;;;;136321;1290;22132;-81
2024/02/16 07:06:09;;;;;;;74.60;41.50;;;;;;;;;;136356;1290;22203;-80
2024/02/16 07:09:14;;;;;;;78.70;43.90;;;;;;;;;;136367;1290;22005;-80
2024/02/16 07:12:15;;;;;;;65.70;41.40;;;;;;;;;;136364;1290;22098;-80
2024/02/16 07:15:16;;;;;;;83.60;42.70;;;;;;;;;;136335;1290;22200;-80
2024/02/16 07:18:17;;;;;;;71.70;42.30;;;;;;;;;;136339;1290;22136;-78
2024/02/16 07:21:20;;;;;;;261.70;47.70;;;;;;;;;;136347;1290;22155;-80
2024/02/16 07:24:24;;;;;;;84.20;40.90;;;;;;;;;;136349;1290;22492;-80
2024/02/16 07:27:25;;;;;;;109.90;45.90;;;;;;;;;;136333;1290;22119;-79
2024/02/16 07:30:28;;;;;;;81.50;39.90;;;;;;;;;;136398;1290;22136;-81
2024/02/16 07:33:30;;;;;;;130.70;46.30;;;;;;;;;;136387;1290;22140;-81
2024/02/16 07:36:31;;;;;;;89.10;42.10;;;;;;;;;;136400;1290;22110;-81
2024/02/16 07:39:33;;;;;;;115.00;45.40;;;;;;;;;;136415;1290;22315;-81
2024/02/16 07:42:34;;;;;;;79.70;40.20;;;;;;;;;;136393;1276;22175;-81
2024/02/16 07:45:35;;;;;;;68.90;39.70;;;;;;;;;;136423;1290;22097;-82
2024/02/16 07:48:36;;;;;;;172.90;42.70;;;;;;;;;;136351;1290;22150;-81
2024/02/16 07:51:37;;;;;;;82.60;38.70;;;;;;;;;;136343;1290;22222;-81
2024/02/16 07:54:38;;;;;;;68.30;37.50;;;;;;;;;;136310;1290;22116;-83
2024/02/16 07:57:40;;;;;;;67.20;36.60;;;;;;;;;;136338;1290;22185;-81
2024/02/16 08:00:41;;;;;;;61.00;36.00;;;;;;;;;;136273;1290;22614;-82
2024/02/16 08:03:42;;;;;;;55.50;36.90;;;;;;;;;;136266;1290;22674;-83
2024/02/16 08:06:43;;;;;;;56.60;36.10;;;;;;;;;;136327;1290;22143;-80
2024/02/16 08:09:44;;;;;;;58.20;34.70;;;;;;;;;;136325;1286;22195;-81
2024/02/16 08:12:46;;;;;;;48.90;33.90;;;;;;;;;;136267;1290;22168;-81
2024/02/16 08:15:48;;;;;;;56.50;36.30;;;;;;;;;;136302;1290;22130;-82
2024/02/16 08:18:49;;;;;;;59.00;34.90;;;;;;;;;;136292;1288;22157;-82
2024/02/16 08:21:51;;;;;;;90.40;34.50;;;;;;;;;;136319;1290;22144;-81
2024/02/16 08:24:52;;;;;;;50.90;32.10;;;;;;;;;;136303;1290;23136;-80
2024/02/16 08:27:54;;;;;;;61.60;33.40;;;;;;;;;;136251;1290;22113;-79
2024/02/16 08:30:55;;;;;;;82.40;32.70;;;;;;;;;;136280;1290;22102;-81
2024/02/16 08:33:56;;;;;;;50.20;31.10;;;;;;;;;;136313;1276;22144;-81
2024/02/16 08:36:58;;;;;;;48.20;30.70;;;;;;;;;;136313;1290;22154;-81
2024/02/16 08:40:00;;;;;;;45.50;28.70;;;;;;;;;;136270;1290;22627;-81
2024/02/16 08:43:02;;;;;;;55.70;31.50;;;;;;;;;;136307;1290;22152;-81
2024/02/16 08:46:04;;;;;;;59.80;29.60;;;;;;;;;;136341;1290;22257;-81
2024/02/16 08:49:05;;;;;;;46.60;29.50;;;;;;;;;;136293;1290;22141;-82
2024/02/16 08:52:06;;;;;;;44.40;29.60;;;;;;;;;;136314;1290;22144;-81
2024/02/16 08:55:08;;;;;;;38.80;28.40;;;;;;;;;;136270;1290;22251;-82
2024/02/16 08:58:10;;;;;;;43.20;27.80;;;;;;;;;;136288;1290;22530;-83
2024/02/16 09:01:11;;;;;;;41.00;29.30;;;;;;;;;;136300;1290;22108;-81
2024/02/16 09:04:12;;;;;;;53.70;29.40;;;;;;;;;;136296;1290;22130;-82
2024/02/16 09:07:13;;;;;;;46.50;28.90;;;;;;;;;;136357;1290;22196;-81
2024/02/16 09:10:15;;;;;;;53.30;29.30;;;;;;;;;;136342;1290;22545;-79
2024/02/16 09:13:16;;;;;;;54.90;28.70;;;;;;;;;;136315;1290;22117;-81
2024/02/16 09:16:17;;;;;;;42.90;28.20;;;;;;;;;;136322;1290;22622;-81
2024/02/16 09:19:19;;;;;;;103.60;31.00;;;;;;;;;;136319;1290;22128;-80
2024/02/16 09:22:20;;;;;;;44.30;28.10;;;;;;;;;;136354;1290;22670;-80
2024/02/16 09:25:21;;;;;;;45.80;27.20;;;;;;;;;;136360;1290;22337;-80
2024/02/16 09:28:22;;;;;;;70.20;28.40;;;;;;;;;;136294;1270;22150;-81
2024/02/16 09:31:23;;;;;;;42.50;27.70;;;;;;;;;;136326;1290;22809;-81
2024/02/16 09:34:26;;;;;;;46.50;26.00;;;;;;;;;;136336;1290;22151;-81
2024/02/16 09:37:27;;;;;;;42.10;28.00;;;;;;;;;;136342;1290;22622;-81
2024/02/16 09:40:28;;;;;;;40.70;29.30;;;;;;;;;;136307;1290;22912;-81
2024/02/16 09:43:29;;;;;;;39.40;27.90;;;;;;;;;;136294;1290;22273;-83
2024/02/16 09:46:30;;;;;;;38.60;26.80;;;;;;;;;;136314;1290;22611;-81
2024/02/16 09:49:32;;;;;;;41.00;27.30;;;;;;;;;;136280;1290;22687;-81
2024/02/16 09:52:33;;;;;;;41.00;27.20;;;;;;;;;;136366;1290;22613;-83
2024/02/16 09:55:35;;;;;;;51.20;29.20;;;;;;;;;;136329;1290;22677;-82
2024/02/16 09:58:36;;;;;;;137.80;31.30;;;;;;;;;;136310;1290;22149;-82
2024/02/16 10:01:37;;;;;;;68.00;26.60;;;;;;;;;;136366;1290;22219;-82
2024/02/16 10:04:38;;;;;;;36.70;25.80;;;;;;;;;;136315;1290;22757;-82
2024/02/16 10:07:39;;;;;;;42.50;25.30;;;;;;;;;;136334;1290;22148;-82
2024/02/16 10:10:41;;;;;;;37.10;25.10;;;;;;;;;;136315;1290;22972;-82
2024/02/16 10:13:42;;;;;;;33.30;23.60;;;;;;;;;;136346;1290;22154;-83
2024/02/16 10:16:43;;;;;;;134.90;29.70;;;;;;;;;;136368;1290;22168;-82
2024/02/16 10:19:45;;;;;;;33.90;22.40;;;;;;;;;;136374;1290;22483;-83
2024/02/16 10:22:46;;;;;;;32.20;22.70;;;;;;;;;;136390;1290;22634;-82
2024/02/16 10:25:47;;;;;;;32.60;22.60;;;;;;;;;;136404;1290;22157;-83
2024/02/16 10:28:48;;;;;;;52.20;23.30;;;;;;;;;;136371;1290;22616;-81
2024/02/16 10:31:49;;;;;;;55.70;22.60;;;;;;;;;;136432;1290;22230;-80
2024/02/16 10:34:50;;;;;;;196.50;28.70;;;;;;;;;;136449;1290;22391;-81
2024/02/16 10:37:52;;;;;;;267.30;30.60;;;;;;;;;;136454;1289;22178;-81
2024/02/16 10:40:53;;;;;;;226.10;29.60;;;;;;;;;;136423;1290;22141;-81
2024/02/16 10:43:54;;;;;;;46.20;20.80;;;;;;;;;;136382;1290;22129;-81
2024/02/16 10:46:56;;;;;;;30.80;20.20;;;;;;;;;;136385;1290;22140;-81
2024/02/16 10:49:57;;;;;;;36.00;20.30;;;;;;;;;;136322;1290;22173;-83
2024/02/16 10:52:58;;;;;;;38.90;20.60;;;;;;;;;;136357;1290;22269;-81
2024/02/16 10:55:59;;;;;;;193.10;26.70;;;;;;;;;;136360;1290;22179;-83
2024/02/16 10:59:00;;;;;;;44.10;20.90;;;;;;;;;;136363;1290;22223;-83
2024/02/16 11:02:02;;;;;;;28.80;20.00;;;;;;;;;;136357;1289;22132;-83
2024/02/16 11:05:03;;;;;;;341.90;34.00;;;;;;;;;;136407;1290;22588;-82
2024/02/16 11:08:04;;;;;;;424.00;38.20;;;;;;;;;;136369;1290;22124;-81
2024/02/16 11:11:06;;;;;;;26.10;17.90;;;;;;;;;;136376;1290;22193;-80
2024/02/16 11:14:08;;;;;;;28.60;17.90;;;;;;;;;;136240;1290;22115;-83
2024/02/16 11:17:09;;;;;;;29.90;18.30;;;;;;;;;;136355;1290;22730;-82
2024/02/16 11:20:11;;;;;;;25.00;17.60;;;;;;;;;;136344;1290;22140;-82
2024/02/16 11:23:12;;;;;;;136.10;24.80;;;;;;;;;;136218;1290;22118;-82
2024/02/16 11:26:13;;;;;;;25.00;18.10;;;;;;;;;;136308;1290;22154;-82
2024/02/16 11:29:14;;;;;;;34.70;18.30;;;;;;;;;;136298;1290;22138;-82
2024/02/16 11:32:15;;;;;;;53.80;19.00;;;;;;;;;;136332;1290;22225;-83
2024/02/16 11:35:16;;;;;;;73.80;20.00;;;;;;;;;;136342;1290;22135;-82
2024/02/16 11:38:18;;;;;;;23.10;15.80;;;;;;;;;;136334;1290;22539;-82
2024/02/16 11:41:22;;;;;;;36.20;18.90;;;;;;;;;;136324;1290;22543;-81
2024/02/16 11:44:23;;;;;;;24.40;16.80;;;;;;;;;;136324;1290;22155;-82
2024/02/16 11:47:25;;;;;;;24.00;15.40;;;;;;;;;;136226;1290;22171;-82
2024/02/16 11:50:26;;;;;;;31.60;15.60;;;;;;;;;;136397;1290;22334;-81
2024/02/16 11:53:27;;;;;;;27.00;16.50;;;;;;;;;;136383;1290;22207;-83
2024/02/16 11:56:29;;;;;;;23.10;14.60;;;;;;;;;;136378;1290;22164;-83
2024/02/16 11:59:31;;;;;;;41.90;16.00;;;;;;;;;;136374;1290;22272;-82
2024/02/16 12:02:32;;;;;;;16.50;12.10;;;;;;;;;;136410;1290;22183;-82
2024/02/16 12:05:33;;;;;;;59.40;14.00;;;;;;;;;;136427;1290;22186;-82
2024/02/16 12:08:34;;;;;;;19.30;12.20;;;;;;;;;;136414;1290;22125;-82
2024/02/16 12:11:35;;;;;;;19.00;11.90;;;;;;;;;;136358;1289;22193;-82
2024/02/16 12:14:37;;;;;;;50.80;13.30;;;;;;;;;;136337;1290;22329;-83
2024/02/16 12:17:38;;;;;;;16.40;10.50;;;;;;;;;;136332;1286;22168;-80
2024/02/16 12:20:40;;;;;;;15.40;11.10;;;;;;;;;;136313;1290;22209;-83
2024/02/16 12:23:41;;;;;;;39.10;12.40;;;;;;;;;;136354;1290;22164;-81
2024/02/16 12:26:42;;;;;;;94.90;12.90;;;;;;;;;;136355;1290;22573;-81
2024/02/16 12:29:43;;;;;;;38.10;11.20;;;;;;;;;;136357;1290;22135;-80
2024/02/16 12:32:44;;;;;;;48.00;11.10;;;;;;;;;;136368;1290;22592;-80
2024/02/16 12:35:46;;;;;;;14.60;9.30;;;;;;;;;;136408;1290;22273;-82
2024/02/16 12:38:47;;;;;;;100.50;12.60;;;;;;;;;;136303;1290;22143;-78
2024/02/16 12:41:49;;;;;;;38.20;11.40;;;;;;;;;;136369;1290;22168;-78
2024/02/16 12:44:50;;;;;;;25.50;11.00;;;;;;;;;;136346;1283;22159;-79
2024/02/16 12:47:51;;;;;;;44.10;11.60;;;;;;;;;;136341;1280;22183;-79
2024/02/16 12:50:52;;;;;;;38.90;11.80;;;;;;;;;;136165;1290;213711;-79
2024/02/16 12:53:53;;;;;;;32.60;11.40;;;;;;;;;;136260;1290;22551;-79
2024/02/16 12:56:55;;;;;;;18.70;10.80;;;;;;;;;;136290;1290;22132;-80
2024/02/16 12:59:56;;;;;;;117.00;15.50;;;;;;;;;;136285;1290;22211;-78
2024/02/16 13:02:57;;;;;;;28.50;11.60;;;;;;;;;;136322;1290;22287;-79
2024/02/16 13:05:58;;;;;;;37.20;12.50;;;;;;;;;;136318;1290;22147;-78
2024/02/16 13:08:59;;;;;;;53.40;13.10;;;;;;;;;;136292;1290;22199;-80
2024/02/16 13:12:00;;;;;;;189.60;18.90;;;;;;;;;;136342;1282;22152;-80
2024/02/16 13:15:02;;;;;;;76.70;13.90;;;;;;;;;;136330;1290;22323;-80
2024/02/16 13:18:04;;;;;;;94.60;15.40;;;;;;;;;;136324;1290;22159;-79
2024/02/16 13:21:05;;;;;;;41.90;13.00;;;;;;;;;;136309;1290;22726;-80
2024/02/16 13:24:06;;;;;;;61.60;15.60;;;;;;;;;;136258;1290;22142;-80
2024/02/16 13:27:08;;;;;;;52.30;11.20;;;;;;;;;;136219;1289;22135;-79
2024/02/16 13:30:09;;;;;;;36.90;12.90;;;;;;;;;;136245;1290;22169;-80
2024/02/16 13:33:10;;;;;;;48.50;12.10;;;;;;;;;;136212;1290;23114;-79
2024/02/16 13:36:12;;;;;;;51.00;12.30;;;;;;;;;;136139;1290;22162;-78
2024/02/16 13:39:14;;;;;;;25.30;11.70;;;;;;;;;;136227;1290;22132;-79
2024/02/16 13:42:15;;;;;;;23.90;10.70;;;;;;;;;;136234;1290;22121;-78
2024/02/16 13:45:16;;;;;;;22.80;10.70;;;;;;;;;;136291;1290;22109;-79
2024/02/16 13:48:17;;;;;;;21.80;10.80;;;;;;;;;;136291;1290;22119;-79
2024/02/16 13:51:19;;;;;;;22.30;10.20;;;;;;;;;;136298;1286;22901;-79
2024/02/16 13:54:22;;;;;;;15.80;9.90;;;;;;;;;;136292;1290;22124;-79
2024/02/16 13:57:23;;;;;;;1419.80;108.00;;;;;;;;;;136300;1290;22290;-79
2024/02/16 14:00:24;;;;;;;59.60;11.70;;;;;;;;;;136280;1290;22110;-81
2024/02/16 14:03:25;;;;;;;43.40;10.20;;;;;;;;;;136332;1290;22184;-79
2024/02/16 14:06:26;;;;;;;26.50;9.30;;;;;;;;;;136296;1290;22890;-79
2024/02/16 14:09:27;;;;;;;100.50;11.30;;;;;;;;;;136293;1290;22175;-79
2024/02/16 14:12:28;;;;;;;431.80;28.90;;;;;;;;;;136299;1290;22951;-78
2024/02/16 14:15:29;;;;;;;69.10;11.40;;;;;;;;;;136332;1290;22476;-80
2024/02/16 14:18:31;;;;;;;55.70;11.10;;;;;;;;;;136319;1290;22131;-80
2024/02/16 14:21:32;;;;;;;41.40;10.50;;;;;;;;;;136353;1290;22111;-79
2024/02/16 14:24:33;;;;;;;28.40;11.80;;;;;;;;;;136297;1273;22336;-79
2024/02/16 14:27:35;;;;;;;32.80;12.00;;;;;;;;;;136347;1290;22240;-79
2024/02/16 14:30:36;;;;;;;32.10;11.30;;;;;;;;;;136324;1290;22221;-81
2024/02/16 14:33:37;;;;;;;161.60;21.70;;;;;;;;;;136323;1290;22116;-79
2024/02/16 14:36:38;;;;;;;35.70;13.50;;;;;;;;;;136340;1290;22128;-78
2024/02/16 14:39:39;;;;;;;20.00;12.00;;;;;;;;;;136352;1290;22204;-78
2024/02/16 14:42:40;;;;;;;93.10;18.80;;;;;;;;;;136349;1290;22170;-78
2024/02/16 14:45:41;;;;;;;61.70;14.90;;;;;;;;;;136312;1290;22155;-81
2024/02/16 14:48:42;;;;;;;38.30;14.00;;;;;;;;;;136379;1290;22188;-79
2024/02/16 14:51:44;;;;;;;53.10;16.80;;;;;;;;;;136361;1286;22151;-79
2024/02/16 14:54:45;;;;;;;60.00;15.40;;;;;;;;;;136370;1290;22650;-80
2024/02/16 14:57:46;;;;;;;54.00;14.80;;;;;;;;;;136409;1290;22138;-80
2024/02/16 15:00:48;;;;;;;41.20;14.20;;;;;;;;;;136362;1286;22179;-79
2024/02/16 15:03:49;;;;;;;98.00;17.20;;;;;;;;;;136367;1286;22560;-80
2024/02/16 15:06:50;;;;;;;77.10;16.30;;;;;;;;;;136373;1290;22139;-78
2024/02/16 15:09:52;;;;;;;51.30;15.40;;;;;;;;;;136358;1290;22136;-79
2024/02/16 15:12:53;;;;;;;77.50;15.80;;;;;;;;;;136413;1290;22113;-78
2024/02/16 15:15:54;;;;;;;53.20;14.70;;;;;;;;;;136379;1290;22162;-79
2024/02/16 15:18:55;;;;;;;57.70;16.50;;;;;;;;;;136260;1276;22160;-79
2024/02/16 15:21:57;;;;;;;1823.00;152.70;;;;;;;;;;136399;1290;22159;-79
2024/02/16 15:24:58;;;;;;;203.10;25.20;;;;;;;;;;136410;1290;22142;-80
2024/02/16 15:27:59;;;;;;;26.90;14.60;;;;;;;;;;136428;1276;22276;-79
2024/02/16 15:31:00;;;;;;;23.90;15.10;;;;;;;;;;136365;1290;22147;-79
2024/02/16 15:34:01;;;;;;;50.70;15.80;;;;;;;;;;136395;1290;22142;-80
2024/02/16 15:37:03;;;;;;;101.20;16.60;;;;;;;;;;136361;1277;22149;-79
2024/02/16 15:40:04;;;;;;;33.50;16.50;;;;;;;;;;136400;1290;22615;-79
2024/02/16 15:43:06;;;;;;;26.60;17.20;;;;;;;;;;136427;1290;22102;-82
2024/02/16 15:46:07;;;;;;;37.60;16.90;;;;;;;;;;136325;1290;22163;-79
2024/02/16 15:49:10;;;;;;;25.80;18.70;;;;;;;;;;136483;1290;22139;-79
2024/02/16 15:52:11;;;;;;;30.90;20.20;;;;;;;;;;136514;1290;22122;-78
2024/02/16 15:55:12;;;;;;;28.30;19.70;;;;;;;;;;136511;1290;22160;-78
2024/02/16 15:58:14;;;;;;;43.50;21.60;;;;;;;;;;136500;1290;22126;-79
2024/02/16 16:01:15;;;;;;;41.10;22.30;;;;;;;;;;136455;1290;22131;-79
2024/02/16 16:04:16;;;;;;;30.80;20.60;;;;;;;;;;136433;1289;22164;-79
2024/02/16 16:07:18;;;;;;;24.80;19.00;;;;;;;;;;136371;1290;22083;-79
2024/02/16 16:10:19;;;;;;;30.40;19.80;;;;;;;;;;136411;1290;22194;-79
2024/02/16 16:13:20;;;;;;;27.80;18.90;;;;;;;;;;136440;1290;22169;-79
2024/02/16 16:16:21;;;;;;;32.20;18.70;;;;;;;;;;136412;1290;22154;-80
2024/02/16 16:19:22;;;;;;;43.30;17.40;;;;;;;;;;136433;1290;22197;-79
2024/02/16 16:22:23;;;;;;;34.50;16.70;;;;;;;;;;136436;1290;22125;-79
2024/02/16 16:25:25;;;;;;;55.30;18.00;;;;;;;;;;136411;1290;22149;-79
2024/02/16 16:28:26;;;;;;;28.40;16.70;;;;;;;;;;136423;1290;22156;-80
2024/02/16 16:31:27;;;;;;;33.80;17.50;;;;;;;;;;136422;1290;22175;-80
2024/02/16 16:34:28;;;;;;;62.90;19.10;;;;;;;;;;136328;1290;22286;-79
2024/02/16 16:37:30;;;;;;;28.40;18.50;;;;;;;;;;136421;1290;22117;-80
2024/02/16 16:40:31;;;;;;;42.00;18.60;;;;;;;;;;136373;1290;22154;-79
2024/02/16 16:43:32;;;;;;;32.40;18.20;;;;;;;;;;136420;1290;22186;-79
2024/02/16 16:46:33;;;;;;;26.50;17.90;;;;;;;;;;136423;1290;22067;-79
2024/02/16 16:49:34;;;;;;;81.30;23.50;;;;;;;;;;136449;1290;22607;-79
2024/02/16 16:52:35;;;;;;;33.10;22.20;;;;;;;;;;136447;1290;22101;-79
2024/02/16 16:55:36;;;;;;;34.50;22.80;;;;;;;;;;136450;1290;22164;-79
2024/02/16 16:58:38;;;;;;;37.90;23.60;;;;;;;;;;136399;1290;22699;-80
2024/02/16 17:01:39;;;;;;;33.60;21.70;;;;;;;;;;136350;1290;22316;-79
2024/02/16 17:04:40;;;;;;;35.30;21.80;;;;;;;;;;136413;1290;22119;-79
2024/02/16 17:07:41;;;;;;;30.40;19.40;;;;;;;;;;136407;1290;22716;-79
2024/02/16 17:10:42;;;;;;;36.50;20.80;;;;;;;;;;136396;1290;22141;-77
2024/02/16 17:13:43;;;;;;;164.60;24.30;;;;;;;;;;136472;1290;22168;-78
2024/02/16 17:16:47;;;;;;;52.80;20.50;;;;;;;;;;136457;1290;22673;-79
2024/02/16 17:19:48;;;;;;;33.70;18.60;;;;;;;;;;136434;1290;22154;-78
2024/02/16 17:22:49;;;;;;;36.00;20.40;;;;;;;;;;136427;1290;22527;-78